Port Heiden Airport
PAPH : rendu visible

Aérodrome :











RETROUVEZ-NOUS SUR...

 
LOGIN :

S'inscrire | Disclaimer

   EN    FR    IT 

 









Légende :    VFR   VFR Marginal   IFR   IFR Intensif   IFR Très Intensif
Visi : 
Plafond : 
>= 8 km
>= 3000ft
5 à 8 km
1000 à 3000 ft
1500m à 5 km
500 à 1000 ft
800 à 1500m
200 à 500 ft
< 800m
< 200 ft
Symboles :   Orages  Brouillard  Fortes neiges  Fortes précipitations  Vent > 20 kt






- Altitude de l'aérodrome : 95 ft
- Code IATA : PTH


PAPH - Port Heiden

DERNIER METAR :
  • 280456Z AUTO 04014KT 10SM -RA OVC044 06/04 A2919 RMK AO2 SLP885 P0004 T00560044

METARs EXPIRÉS :
  • 280356Z AUTO 04012KT 10SM -RA OVC042 06/04 A2918 RMK AO2 SLP883 P0002 T00610044
  • 280256Z AUTO 06013KT 10SM -RA BKN033 OVC046 06/04 A2919 RMK AO2 SLP885 P0001 60002 T00610044 56030
  • 280156Z AUTO 07012KT 10SM -RA SCT038 OVC050 08/04 A2921 RMK AO2 RAE09B27 SLP891 P0000 T00780039

TAF N/A
FIR PAZA / Amérique du Nord



MET'MAP, la Météo Aéronautique d'un coup d'oeil ! - Copyright ORBIFLY Décembre 2007 - Disclaimer

ORBIFLY MET'MAP TEAM :

Programmation & Développement : Alexandra Zaïnal
Sur une idée originale de : Baudouin d'Aumeries
Assistance à la programmation : Marc-Olivier Méhu
Soutien technique & logistique : Manuel Goepfert

Contact : metmap@orbifly.com




SOURCES & CREDITS :

   NOAA       Earth
Advisory